createdAt,value
2023-04-10T00:00:11.332Z,100918.72
2023-04-10T00:02:38.545Z,100935.41
2023-04-10T00:05:06.623Z,100915.72
2023-04-10T00:07:34.203Z,100941.31
2023-04-10T00:10:01.226Z,100935.06
2023-04-10T00:12:28.757Z,100938.69
2023-04-10T00:14:55.840Z,100893.59
2023-04-10T00:17:24.806Z,100939.66
2023-04-10T00:19:52.205Z,100935.50
2023-04-10T00:22:19.133Z,100925.03
2023-04-10T00:24:46.095Z,100938.44
2023-04-10T00:27:13.037Z,100935.09
2023-04-10T00:29:40.057Z,100931.91
2023-04-10T00:32:07.140Z,100940.56
2023-04-10T00:34:34.370Z,100937.78
2023-04-10T00:37:01.348Z,100947.53
2023-04-10T00:39:28.447Z,100944.06
2023-04-10T00:41:55.859Z,100941.53
2023-04-10T00:44:22.826Z,100946.72
2023-04-10T00:46:49.823Z,100947.50
2023-04-10T00:49:18.566Z,100942.31
2023-04-10T00:51:45.651Z,100948.44
2023-04-10T00:54:12.710Z,100928.13
2023-04-10T00:56:40.528Z,100932.66
2023-04-10T00:59:07.837Z,100939.44
2023-04-10T01:01:34.957Z,100944.13
2023-04-10T01:04:02.478Z,100944.06
2023-04-10T01:06:44.814Z,100952.09
2023-04-10T01:09:29.959Z,100948.56
2023-04-10T01:12:11.757Z,100932.03
2023-04-10T01:15:00.768Z,100941.72
2023-04-10T01:17:46.529Z,100935.94
2023-04-10T01:20:22.733Z,100929.88
2023-04-10T01:23:28.694Z,100940.50
2023-04-10T01:26:04.991Z,100933.28
2023-04-10T01:28:50.716Z,100934.41
2023-04-10T01:31:22.030Z,100932.63
2023-04-10T01:33:57.802Z,100937.09
2023-04-10T01:36:31.253Z,100927.59
2023-04-10T01:38:59.121Z,100926.75
2023-04-10T01:41:27.597Z,100870.22
2023-04-10T01:43:56.438Z,100917.13
2023-04-10T01:46:25.326Z,100916.91
2023-04-10T01:48:55.692Z,100921.03
2023-04-10T01:51:23.924Z,100938.19
2023-04-10T01:53:52.519Z,100931.34
2023-04-10T01:56:24.554Z,100934.13
2023-04-10T01:58:51.516Z,100935.97
2023-04-10T02:01:29.188Z,100931.84
2023-04-10T02:03:59.057Z,100911.81
2023-04-10T02:06:39.431Z,100926.94
2023-04-10T02:09:16.520Z,100935.78
2023-04-10T02:11:53.281Z,100921.75
2023-04-10T02:14:23.222Z,100914.56
2023-04-10T02:17:13.745Z,100928.75
2023-04-10T02:19:41.577Z,100928.91
2023-04-10T02:22:08.854Z,100932.56
2023-04-10T02:24:35.970Z,100931.03
2023-04-10T02:27:02.920Z,100925.63
2023-04-10T02:29:29.913Z,100931.72
2023-04-10T02:31:56.901Z,100923.03
2023-04-10T02:34:23.852Z,100937.03
2023-04-10T02:36:50.792Z,100932.25
2023-04-10T02:39:18.200Z,100942.41
2023-04-10T02:41:51.100Z,100940.59
2023-04-10T02:44:18.276Z,100930.31
2023-04-10T02:46:46.653Z,100930.59
2023-04-10T02:49:14.639Z,100920.16
2023-04-10T02:51:41.662Z,100934.50
2023-04-10T02:54:08.905Z,100928.53
2023-04-10T02:56:37.703Z,100934.72
2023-04-10T02:59:04.923Z,100943.44
2023-04-10T03:01:32.776Z,100930.94
2023-04-10T03:04:00.579Z,100944.66
2023-04-10T03:06:31.495Z,100925.97
2023-04-10T03:08:58.813Z,100939.19
2023-04-10T03:11:27.429Z,100941.78
2023-04-10T03:13:54.943Z,100945.53
2023-04-10T03:16:22.335Z,100937.72
2023-04-10T03:18:49.549Z,100946.38
2023-04-10T03:21:16.741Z,100947.38
2023-04-10T03:23:43.709Z,100949.38
2023-04-10T03:26:11.670Z,100924.56
2023-04-10T03:28:39.942Z,100949.09
2023-04-10T03:31:10.775Z,100940.44
2023-04-10T03:33:39.094Z,100947.13
2023-04-10T03:36:07.100Z,100952.56
2023-04-10T03:38:34.195Z,100959.88
2023-04-10T03:41:01.263Z,100953.19
2023-04-10T03:43:31.528Z,100952.88
2023-04-10T03:45:59.359Z,100951.66
2023-04-10T03:48:28.448Z,100953.03
2023-04-10T03:50:55.754Z,100951.66
2023-04-10T03:53:23.403Z,100955.38
2023-04-10T03:55:53.041Z,100872.03
2023-04-10T03:58:21.810Z,100940.19
2023-04-10T04:00:49.103Z,100943.06
2023-04-10T04:03:31.741Z,100939.53
2023-04-10T04:06:17.504Z,100945.53
2023-04-10T04:09:04.388Z,100911.97
2023-04-10T04:11:54.697Z,100896.69
2023-04-10T04:14:40.309Z,100946.63
2023-04-10T04:17:46.408Z,100943.66
2023-04-10T04:20:32.037Z,100939.56
2023-04-10T04:23:15.653Z,100934.34
2023-04-10T04:25:42.718Z,100920.47
2023-04-10T04:28:30.179Z,100938.75
2023-04-10T04:31:17.451Z,100889.19
2023-04-10T04:34:07.372Z,100934.84
2023-04-10T04:36:50.889Z,100938.22
2023-04-10T04:39:17.900Z,100929.78
2023-04-10T04:41:44.852Z,100945.88
2023-04-10T04:44:19.581Z,100941.72
2023-04-10T04:47:24.418Z,100935.84
2023-04-10T04:50:04.315Z,100890.13
2023-04-10T04:52:51.248Z,100932.69
2023-04-10T04:55:32.849Z,100937.22
2023-04-10T04:58:20.554Z,100940.28
2023-04-10T05:01:08.630Z,100940.13
2023-04-10T05:04:04.959Z,100929.91
2023-04-10T05:06:50.737Z,100947.66
2023-04-10T05:09:44.040Z,100940.78
2023-04-10T05:12:19.422Z,100948.06
2023-04-10T05:15:05.565Z,100951.28
2023-04-10T05:17:32.538Z,100938.53
2023-04-10T05:20:36.088Z,100946.75
2023-04-10T05:23:36.670Z,100949.31
2023-04-10T05:26:15.855Z,100936.25
2023-04-10T05:29:01.678Z,100947.78
2023-04-10T05:31:55.112Z,100958.56
2023-04-10T05:34:40.053Z,100951.06
2023-04-10T05:37:13.130Z,100953.28
2023-04-10T05:39:50.286Z,100909.56
2023-04-10T05:42:33.884Z,100952.81
2023-04-10T05:45:19.419Z,100947.81
2023-04-10T05:48:03.012Z,100955.84
2023-04-10T05:50:42.378Z,100952.47
2023-04-10T05:53:32.546Z,100950.03
2023-04-10T05:56:22.278Z,100952.81
2023-04-10T05:59:31.184Z,100959.94
2023-04-10T06:02:21.958Z,100915.22
2023-04-10T06:04:49.897Z,100952.91
2023-04-10T06:07:17.083Z,100943.97
2023-04-10T06:09:44.105Z,100945.47
2023-04-10T06:12:11.227Z,100938.50
2023-04-10T06:14:40.527Z,100935.09
2023-04-10T06:17:08.098Z,100956.28
2023-04-10T06:19:35.850Z,100956.34
2023-04-10T06:22:02.820Z,100950.25
2023-04-10T06:24:29.901Z,100951.19
2023-04-10T06:26:57.201Z,100957.31
2023-04-10T06:29:24.811Z,100962.50
2023-04-10T06:31:52.120Z,100948.41
2023-04-10T06:34:20.197Z,100940.25
2023-04-10T06:36:56.764Z,100953.38
2023-04-10T06:39:23.786Z,100958.59
2023-04-10T06:41:50.773Z,100952.41
2023-04-10T06:44:32.589Z,100955.09
2023-04-10T06:46:59.773Z,100948.22
2023-04-10T06:49:26.744Z,100950.91
2023-04-10T06:51:53.753Z,100964.19
2023-04-10T06:54:20.892Z,100958.09
2023-04-10T06:56:47.839Z,100963.34
2023-04-10T06:59:14.874Z,100959.81
2023-04-10T07:01:41.867Z,100946.59
2023-04-10T07:04:08.982Z,100958.09
2023-04-10T07:06:36.084Z,100957.28
2023-04-10T07:09:03.097Z,100930.03
2023-04-10T07:11:30.070Z,100958.66
2023-04-10T07:13:58.932Z,100935.66
2023-04-10T07:16:26.090Z,100956.56
2023-04-10T07:18:53.422Z,100958.50
2023-04-10T07:21:20.807Z,100941.06
2023-04-10T07:23:47.943Z,100958.78
2023-04-10T07:26:15.075Z,100962.44
2023-04-10T07:28:42.134Z,100961.69
2023-04-10T07:31:09.194Z,100965.25
2023-04-10T07:33:36.627Z,100938.84
2023-04-10T07:36:05.965Z,100966.88
2023-04-10T07:38:33.289Z,100936.91
2023-04-10T07:41:00.556Z,100964.00
2023-04-10T07:43:27.563Z,100963.78
2023-04-10T07:45:54.567Z,100906.53
2023-04-10T07:48:21.545Z,100960.03
2023-04-10T07:50:48.634Z,100960.88
2023-04-10T07:53:15.810Z,100946.56
2023-04-10T07:55:44.440Z,100959.59
2023-04-10T07:58:11.484Z,100963.88
2023-04-10T08:00:38.480Z,100914.63
2023-04-10T08:03:06.583Z,100962.03
2023-04-10T08:05:34.230Z,100966.34
2023-04-10T08:08:01.219Z,100946.94
2023-04-10T08:10:28.215Z,100965.41
2023-04-10T08:12:55.314Z,100958.44
2023-04-10T08:15:22.247Z,100940.84
2023-04-10T08:17:49.237Z,100963.69
2023-04-10T08:20:16.308Z,100954.16
2023-04-10T08:22:43.278Z,100946.38
2023-04-10T08:25:10.428Z,100952.66
2023-04-10T08:27:37.765Z,100953.88
2023-04-10T08:30:05.426Z,100956.00
2023-04-10T08:32:32.765Z,100955.31
2023-04-10T08:34:59.835Z,100940.53
2023-04-10T08:37:27.038Z,100943.16
2023-04-10T08:39:54.244Z,100913.38
2023-04-10T08:42:22.416Z,100947.63
2023-04-10T08:44:50.974Z,100936.19
2023-04-10T08:47:21.543Z,100948.47
2023-04-10T08:49:53.670Z,100942.28
2023-04-10T08:52:25.812Z,100943.91
2023-04-10T08:54:56.829Z,100943.88
2023-04-10T08:57:24.204Z,100907.84
2023-04-10T08:59:51.822Z,100933.09
2023-04-10T09:02:20.006Z,100938.19
2023-04-10T09:04:55.407Z,100938.22
2023-04-10T09:07:23.560Z,100942.50
2023-04-10T09:09:50.499Z,100946.00
2023-04-10T09:12:17.479Z,100943.34
2023-04-10T09:14:44.548Z,100900.25
2023-04-10T09:17:18.504Z,100930.97
2023-04-10T09:19:48.165Z,100924.78
2023-04-10T09:22:16.347Z,100938.75
2023-04-10T09:24:47.024Z,100930.78
2023-04-10T09:27:31.879Z,100917.63
2023-04-10T09:29:59.552Z,100935.19
2023-04-10T09:32:44.157Z,100923.84
2023-04-10T09:35:13.651Z,100926.47
2023-04-10T09:37:42.482Z,100915.06
2023-04-10T09:40:26.843Z,100921.28
2023-04-10T09:42:56.300Z,100914.22
2023-04-10T09:45:23.301Z,100922.22
2023-04-10T09:48:08.168Z,100921.59
2023-04-10T09:50:41.100Z,100926.19
2023-04-10T09:53:16.775Z,100922.13
2023-04-10T09:55:44.274Z,100911.75
2023-04-10T09:58:12.553Z,100904.72
2023-04-10T10:00:42.161Z,100913.34
2023-04-10T10:03:12.375Z,100908.69
2023-04-10T10:05:43.052Z,100860.28
2023-04-10T10:08:11.616Z,100910.16
2023-04-10T10:10:58.049Z,100899.59
2023-04-10T10:13:31.918Z,100903.94
2023-04-10T10:16:04.897Z,100904.75
2023-04-10T10:19:02.118Z,100910.16
2023-04-10T10:21:30.319Z,100863.16
2023-04-10T10:23:59.613Z,100907.13
2023-04-10T10:26:28.587Z,100903.78
2023-04-10T10:28:58.162Z,100894.22
2023-04-10T10:31:26.218Z,100902.09
2023-04-10T10:33:53.422Z,100895.94
2023-04-10T10:36:22.466Z,100900.25
2023-04-10T10:39:21.472Z,100894.88
2023-04-10T10:42:11.273Z,100887.81
2023-04-10T10:45:00.155Z,100890.41
2023-04-10T10:47:29.212Z,100893.91
2023-04-10T10:50:00.391Z,100887.78
2023-04-10T10:52:43.543Z,100868.47
2023-04-10T10:55:22.424Z,100892.13
2023-04-10T10:57:52.140Z,100887.78
2023-04-10T11:00:21.057Z,100873.81
2023-04-10T11:03:12.973Z,100890.53
2023-04-10T11:05:59.179Z,100872.19
2023-04-10T11:08:46.960Z,100875.75
2023-04-10T11:11:21.800Z,100878.41
2023-04-10T11:13:57.530Z,100900.38
2023-04-10T11:16:31.708Z,100896.00
2023-04-10T11:19:12.889Z,100888.06
2023-04-10T11:22:05.317Z,100895.09
2023-04-10T11:24:58.347Z,100900.34
2023-04-10T11:27:45.967Z,100903.81
2023-04-10T11:30:36.150Z,100888.03
2023-04-10T11:33:04.735Z,100902.03
2023-04-10T11:35:32.960Z,100885.34
2023-04-10T11:38:13.458Z,100917.41
2023-04-10T11:40:58.130Z,100915.72
2023-04-10T11:43:25.560Z,100866.22
2023-04-10T11:46:03.354Z,100883.50
2023-04-10T11:48:31.290Z,100915.97
2023-04-10T11:51:00.144Z,100920.63
2023-04-10T11:53:27.989Z,100913.41
2023-04-10T11:55:55.517Z,100922.09
2023-04-10T11:58:27.799Z,100929.84
2023-04-10T12:01:03.302Z,100926.25
2023-04-10T12:03:34.545Z,100929.53
2023-04-10T12:06:01.866Z,100929.31
2023-04-10T12:08:37.253Z,100922.22
2023-04-10T12:11:04.373Z,100923.63
2023-04-10T12:13:32.522Z,100917.34
2023-04-10T12:16:02.200Z,100931.13
2023-04-10T12:18:30.905Z,100921.06
2023-04-10T12:20:59.583Z,100923.56
2023-04-10T12:23:27.974Z,100907.50
2023-04-10T12:26:10.799Z,100918.78
2023-04-10T12:28:39.292Z,100912.44
2023-04-10T12:31:07.078Z,100904.44
2023-04-10T12:33:34.163Z,100906.88
2023-04-10T12:36:01.623Z,100907.59
2023-04-10T12:38:36.566Z,100897.06
2023-04-10T12:41:04.168Z,100908.47
2023-04-10T12:43:39.686Z,100908.41
2023-04-10T12:46:08.874Z,100911.00
2023-04-10T12:48:36.326Z,100896.06
2023-04-10T12:51:04.268Z,100905.94
2023-04-10T12:53:31.426Z,100898.09
2023-04-10T12:56:04.100Z,100895.84
2023-04-10T12:58:31.786Z,100892.44
2023-04-10T13:01:02.973Z,100904.75
2023-04-10T13:03:30.203Z,100908.34
2023-04-10T13:05:57.377Z,100897.91
2023-04-10T13:08:24.401Z,100877.53
2023-04-10T13:10:51.683Z,100839.63
2023-04-10T13:13:18.991Z,100885.47
2023-04-10T13:15:46.055Z,100894.31
2023-04-10T13:18:13.092Z,100902.22
2023-04-10T13:20:41.443Z,100898.75
2023-04-10T13:23:08.804Z,100878.94
2023-04-10T13:25:39.944Z,100890.66
2023-04-10T13:28:11.643Z,100880.94
2023-04-10T13:30:42.443Z,100880.16
2023-04-10T13:33:10.221Z,100843.34
2023-04-10T13:35:37.387Z,100895.75
2023-04-10T13:38:04.413Z,100839.50
2023-04-10T13:40:31.501Z,100883.66
2023-04-10T13:42:58.521Z,100882.50
2023-04-10T13:45:25.515Z,100862.00
2023-04-10T13:47:52.574Z,100875.66
2023-04-10T13:50:19.701Z,100887.63
2023-04-10T13:52:46.741Z,100881.38
2023-04-10T13:55:13.754Z,100881.75
2023-04-10T13:57:41.339Z,100867.81
2023-04-10T14:00:10.338Z,100881.03
2023-04-10T14:02:40.518Z,100879.34
2023-04-10T14:05:08.284Z,100876.03
2023-04-10T14:07:35.586Z,100869.44
2023-04-10T14:10:03.271Z,100868.94
2023-04-10T14:12:30.961Z,100870.06
2023-04-10T14:14:59.100Z,100878.91
2023-04-10T14:17:26.124Z,100864.75
2023-04-10T14:19:54.144Z,100861.47
2023-04-10T14:22:21.392Z,100862.97
2023-04-10T14:24:48.979Z,100797.66
2023-04-10T14:27:17.297Z,100823.25
2023-04-10T14:29:50.869Z,100854.09
2023-04-10T14:32:21.308Z,100865.56
2023-04-10T14:34:48.327Z,100852.41
2023-04-10T14:37:15.657Z,100842.16
2023-04-10T14:39:42.817Z,100850.25
2023-04-10T14:42:10.743Z,100854.38
2023-04-10T14:44:37.916Z,100830.69
2023-04-10T14:47:08.126Z,100847.66
2023-04-10T14:49:35.188Z,100830.13
2023-04-10T14:52:02.142Z,100839.88
2023-04-10T14:54:29.105Z,100843.41
2023-04-10T14:56:58.342Z,100845.09
2023-04-10T14:59:25.422Z,100845.09
2023-04-10T15:01:54.077Z,100845.09
2023-04-10T15:04:21.273Z,100834.50
2023-04-10T15:06:48.347Z,100835.53
2023-04-10T15:09:15.382Z,100841.69
2023-04-10T15:11:42.502Z,100832.19
2023-04-10T15:14:09.502Z,100832.28
2023-04-10T15:16:36.550Z,100831.47
2023-04-10T15:19:03.564Z,100830.63
2023-04-10T15:21:31.374Z,100816.47
2023-04-10T15:23:58.373Z,100826.31
2023-04-10T15:26:25.500Z,100821.97
2023-04-10T15:28:52.724Z,100820.25
2023-04-10T15:31:22.973Z,100820.25
2023-04-10T15:33:52.395Z,100820.19
2023-04-10T15:36:19.576Z,100816.63
2023-04-10T15:38:47.498Z,100805.16
2023-04-10T15:41:16.618Z,100799.88
2023-04-10T15:43:43.597Z,100811.31
2023-04-10T15:46:10.927Z,100810.41
2023-04-10T15:48:37.943Z,100804.88
2023-04-10T15:51:06.205Z,100795.16
2023-04-10T15:53:34.543Z,100809.72
2023-04-10T15:56:03.725Z,100810.66
2023-04-10T15:58:30.726Z,100802.75
2023-04-10T16:00:57.763Z,100795.47
2023-04-10T16:03:26.050Z,100808.41
2023-04-10T16:05:54.474Z,100808.25
2023-04-10T16:08:21.432Z,100808.13
2023-04-10T16:10:48.399Z,100796.78
2023-04-10T16:13:15.593Z,100799.47
2023-04-10T16:15:42.583Z,100804.72
2023-04-10T16:18:09.607Z,100807.31
2023-04-10T16:20:36.789Z,100798.50
2023-04-10T16:23:03.847Z,100802.88
2023-04-10T16:25:31.274Z,100805.19
2023-04-10T16:27:58.259Z,100800.81
2023-04-10T16:30:25.434Z,100800.78
2023-04-10T16:32:52.552Z,100811.03
2023-04-10T16:35:19.950Z,100809.19
2023-04-10T16:37:46.974Z,100759.00
2023-04-10T16:40:14.134Z,100805.50
2023-04-10T16:42:42.971Z,100800.94
2023-04-10T16:45:10.769Z,100807.00
2023-04-10T16:47:38.603Z,100803.50
2023-04-10T16:50:06.320Z,100811.13
2023-04-10T16:52:33.426Z,100806.56
2023-04-10T16:55:00.563Z,100805.59
2023-04-10T16:57:27.731Z,100774.69
2023-04-10T17:00:00.876Z,100804.63
2023-04-10T17:02:29.807Z,100685.56
2023-04-10T17:04:57.254Z,100799.09
2023-04-10T17:07:24.436Z,100692.47
2023-04-10T17:09:51.474Z,100796.31
2023-04-10T17:12:18.593Z,100793.47
2023-04-10T17:14:45.793Z,100744.06
2023-04-10T17:17:12.917Z,100780.94
2023-04-10T17:19:40.105Z,100800.25
2023-04-10T17:22:16.047Z,100801.13
2023-04-10T17:24:44.046Z,100799.34
2023-04-10T17:27:11.580Z,100800.16
2023-04-10T17:29:39.491Z,100799.22
2023-04-10T17:32:08.065Z,100801.81
2023-04-10T17:34:35.683Z,100792.00
2023-04-10T17:37:02.770Z,100740.91
2023-04-10T17:39:29.771Z,100786.78
2023-04-10T17:41:56.982Z,100795.66
2023-04-10T17:44:24.160Z,100787.78
2023-04-10T17:46:51.261Z,100781.69
2023-04-10T17:49:18.317Z,100793.03
2023-04-10T17:51:45.586Z,100772.69
2023-04-10T17:54:12.599Z,100779.50
2023-04-10T17:56:39.603Z,100790.16
2023-04-10T17:59:06.643Z,100793.66
2023-04-10T18:01:33.707Z,100777.88
2023-04-10T18:04:02.885Z,100784.09
2023-04-10T18:06:30.358Z,100788.44
2023-04-10T18:08:57.597Z,100784.88
2023-04-10T18:11:25.499Z,100782.19
2023-04-10T18:13:52.443Z,100795.25
2023-04-10T18:16:19.473Z,100776.97
2023-04-10T18:18:46.712Z,100775.94
2023-04-10T18:21:13.895Z,100767.19
2023-04-10T18:23:41.244Z,100777.53
2023-04-10T18:26:08.261Z,100757.19
2023-04-10T18:28:36.525Z,100778.25
2023-04-10T18:31:03.682Z,100756.16
2023-04-10T18:33:30.830Z,100781.41
2023-04-10T18:35:59.177Z,100778.69
2023-04-10T18:38:27.491Z,100752.13
2023-04-10T18:40:56.703Z,100777.53
2023-04-10T18:43:30.202Z,100770.22
2023-04-10T18:45:57.228Z,100758.44
2023-04-10T18:48:24.302Z,100763.41
2023-04-10T18:50:54.331Z,100771.16
2023-04-10T18:53:22.355Z,100773.75
2023-04-10T18:55:54.043Z,100723.66
2023-04-10T18:58:22.414Z,100771.22
2023-04-10T19:00:49.747Z,100764.13
2023-04-10T19:03:17.070Z,100773.59
2023-04-10T19:05:44.559Z,100713.69
2023-04-10T19:08:14.773Z,100756.88
2023-04-10T19:10:42.653Z,100759.53
2023-04-10T19:13:11.930Z,100737.50
2023-04-10T19:15:43.409Z,100735.69
2023-04-10T19:18:12.320Z,100755.41
2023-04-10T19:20:52.451Z,100756.25
2023-04-10T19:23:21.267Z,100759.88
2023-04-10T19:25:55.027Z,100769.41
2023-04-10T19:28:23.601Z,100760.56
2023-04-10T19:30:50.844Z,100751.72
2023-04-10T19:33:18.841Z,100760.44
2023-04-10T19:35:45.935Z,100750.72
2023-04-10T19:38:12.944Z,100755.03
2023-04-10T19:40:40.095Z,100769.78
2023-04-10T19:43:07.055Z,100764.34
2023-04-10T19:45:36.954Z,100743.19
2023-04-10T19:48:04.321Z,100764.47
2023-04-10T19:50:31.608Z,100747.84
2023-04-10T19:52:59.473Z,100758.47
2023-04-10T19:55:26.754Z,100764.66
2023-04-10T19:57:54.792Z,100747.13
2023-04-10T20:00:21.969Z,100699.34
2023-04-10T20:02:49.168Z,100714.34
2023-04-10T20:05:16.274Z,100749.72
2023-04-10T20:07:43.334Z,100741.19
2023-04-10T20:10:10.737Z,100739.47
2023-04-10T20:12:37.735Z,100730.84
2023-04-10T20:15:05.595Z,100736.16
2023-04-10T20:17:32.614Z,100738.97
2023-04-10T20:19:59.626Z,100741.50
2023-04-10T20:22:26.588Z,100744.84
2023-04-10T20:24:53.548Z,100736.09
2023-04-10T20:27:20.503Z,100736.09
2023-04-10T20:29:47.454Z,100757.09
2023-04-10T20:32:14.430Z,100748.56
2023-04-10T20:34:41.423Z,100748.56
2023-04-10T20:37:08.386Z,100751.22
2023-04-10T20:39:37.772Z,100754.03
2023-04-10T20:42:06.121Z,100748.75
2023-04-10T20:44:36.678Z,100735.47
2023-04-10T20:47:05.518Z,100756.53
2023-04-10T20:49:32.559Z,100737.22
2023-04-10T20:51:59.921Z,100752.22
2023-04-10T20:54:27.384Z,100735.50
2023-04-10T20:56:54.438Z,100731.00
2023-04-10T20:59:21.438Z,100724.84
2023-04-10T21:01:48.465Z,100752.19
2023-04-10T21:04:15.605Z,100750.41
2023-04-10T21:06:42.737Z,100718.81
2023-04-10T21:09:09.793Z,100733.81
2023-04-10T21:11:36.800Z,100747.13
2023-04-10T21:14:03.887Z,100743.31
2023-04-10T21:16:31.358Z,100747.41
2023-04-10T21:18:58.387Z,100749.81
2023-04-10T21:21:26.478Z,100747.13
2023-04-10T21:23:54.081Z,100740.06
2023-04-10T21:26:21.028Z,100743.06
2023-04-10T21:28:47.970Z,100744.13
2023-04-10T21:31:14.937Z,100734.38
2023-04-10T21:33:42.823Z,100743.97
2023-04-10T21:36:09.938Z,100736.19
2023-04-10T21:38:36.958Z,100742.44
2023-04-10T21:41:04.237Z,100748.50
2023-04-10T21:43:31.261Z,100722.06
2023-04-10T21:45:58.311Z,100727.44
2023-04-10T21:48:25.817Z,100737.91
2023-04-10T21:50:53.043Z,100742.38
2023-04-10T21:53:20.082Z,100737.09
2023-04-10T21:55:47.018Z,100715.16
2023-04-10T21:58:14.040Z,100732.94
2023-04-10T22:00:42.614Z,100733.84
2023-04-10T22:03:09.955Z,100731.41
2023-04-10T22:05:37.534Z,100723.53
2023-04-10T22:08:04.572Z,100729.00
2023-04-10T22:10:31.910Z,100725.34
2023-04-10T22:12:58.990Z,100731.56
2023-04-10T22:15:26.135Z,100735.84
2023-04-10T22:17:53.525Z,100734.16
2023-04-10T22:20:20.633Z,100736.81
2023-04-10T22:22:47.604Z,100729.91
2023-04-10T22:25:14.566Z,100737.00
2023-04-10T22:27:41.516Z,100731.03
2023-04-10T22:30:09.953Z,100729.31
2023-04-10T22:32:37.184Z,100728.47
2023-04-10T22:35:04.568Z,100717.16
2023-04-10T22:37:31.527Z,100727.69
2023-04-10T22:40:00.594Z,100717.31
2023-04-10T22:42:29.325Z,100721.75
2023-04-10T22:44:58.299Z,100716.63
2023-04-10T22:47:25.410Z,100720.88
2023-04-10T22:49:52.511Z,100721.03
2023-04-10T22:52:19.435Z,100718.50
2023-04-10T22:54:46.529Z,100722.84
2023-04-10T22:57:13.457Z,100720.22
2023-04-10T22:59:40.456Z,100715.59
2023-04-10T23:02:07.528Z,100690.72
2023-04-10T23:04:34.629Z,100719.34
2023-04-10T23:07:01.578Z,100705.00
2023-04-10T23:09:28.666Z,100700.69
2023-04-10T23:11:56.558Z,100709.69
2023-04-10T23:14:23.543Z,100715.75
2023-04-10T23:16:50.622Z,100713.09
2023-04-10T23:19:18.799Z,100714.03
2023-04-10T23:21:45.893Z,100653.38
2023-04-10T23:24:12.870Z,100714.22
2023-04-10T23:26:39.789Z,100716.00
2023-04-10T23:29:06.778Z,100704.72
2023-04-10T23:31:33.727Z,100708.25
2023-04-10T23:34:00.788Z,100718.56
2023-04-10T23:36:27.759Z,100646.66
2023-04-10T23:38:54.762Z,100703.72
2023-04-10T23:41:21.827Z,100697.63
2023-04-10T23:43:48.763Z,100706.50
2023-04-10T23:46:15.774Z,100709.25
2023-04-10T23:48:42.718Z,100709.09
2023-04-10T23:51:09.705Z,100689.44
2023-04-10T23:53:36.638Z,100693.75
2023-04-10T23:56:03.591Z,100692.91
2023-04-10T23:58:30.734Z,100697.25
